sensor_id;sensor_type;location;lat;lon;timestamp;temperature;humidity
9919;DHT22;4998;51.024;13.828;2023-02-14T00:02:04;10.40;94.70
9919;DHT22;4998;51.024;13.828;2023-02-14T00:04:32;10.40;94.80
9919;DHT22;4998;51.024;13.828;2023-02-14T00:10:34;10.40;94.80
9919;DHT22;4998;51.024;13.828;2023-02-14T00:13:01;10.40;94.80
9919;DHT22;4998;51.024;13.828;2023-02-14T00:15:28;10.30;94.80
9919;DHT22;4998;51.024;13.828;2023-02-14T00:17:55;10.40;94.80
9919;DHT22;4998;51.024;13.828;2023-02-14T00:20:24;10.30;94.80
9919;DHT22;4998;51.024;13.828;2023-02-14T00:22:51;10.30;94.80
9919;DHT22;4998;51.024;13.828;2023-02-14T00:25:19;10.30;94.90
9919;DHT22;4998;51.024;13.828;2023-02-14T00:27:47;10.30;94.90
9919;DHT22;4998;51.024;13.828;2023-02-14T00:30:14;10.30;94.90
9919;DHT22;4998;51.024;13.828;2023-02-14T00:32:42;10.30;94.90
9919;DHT22;4998;51.024;13.828;2023-02-14T00:35:09;10.30;94.90
9919;DHT22;4998;51.024;13.828;2023-02-14T00:37:43;10.30;95.00
9919;DHT22;4998;51.024;13.828;2023-02-14T00:40:12;10.30;94.90
9919;DHT22;4998;51.024;13.828;2023-02-14T00:42:39;10.30;94.90
9919;DHT22;4998;51.024;13.828;2023-02-14T00:45:08;10.30;94.90
9919;DHT22;4998;51.024;13.828;2023-02-14T00:47:35;10.40;94.90
9919;DHT22;4998;51.024;13.828;2023-02-14T00:50:03;10.30;94.90
9919;DHT22;4998;51.024;13.828;2023-02-14T00:52:30;10.30;94.90
9919;DHT22;4998;51.024;13.828;2023-02-14T00:54:57;10.30;94.80
9919;DHT22;4998;51.024;13.828;2023-02-14T00:57:24;10.30;94.80
9919;DHT22;4998;51.024;13.828;2023-02-14T01:00:01;10.30;94.90
9919;DHT22;4998;51.024;13.828;2023-02-14T01:02:29;10.20;94.80
9919;DHT22;4998;51.024;13.828;2023-02-14T01:04:56;10.20;94.70
9919;DHT22;4998;51.024;13.828;2023-02-14T01:07:23;10.20;94.70
9919;DHT22;4998;51.024;13.828;2023-02-14T01:09:50;10.20;94.70
9919;DHT22;4998;51.024;13.828;2023-02-14T01:12:18;10.20;94.70
9919;DHT22;4998;51.024;13.828;2023-02-14T01:14:45;10.20;94.80
9919;DHT22;4998;51.024;13.828;2023-02-14T01:17:12;10.20;94.80
9919;DHT22;4998;51.024;13.828;2023-02-14T01:19:40;10.20;94.70
9919;DHT22;4998;51.024;13.828;2023-02-14T01:22:08;10.20;94.70
9919;DHT22;4998;51.024;13.828;2023-02-14T01:24:35;10.30;94.90
9919;DHT22;4998;51.024;13.828;2023-02-14T01:27:02;10.20;94.80
9919;DHT22;4998;51.024;13.828;2023-02-14T01:29:29;10.20;94.80
9919;DHT22;4998;51.024;13.828;2023-02-14T01:31:56;10.20;94.80
9919;DHT22;4998;51.024;13.828;2023-02-14T01:34:23;10.30;94.80
9919;DHT22;4998;51.024;13.828;2023-02-14T01:36:52;10.30;94.90
9919;DHT22;4998;51.024;13.828;2023-02-14T01:39:19;10.30;94.70
9919;DHT22;4998;51.024;13.828;2023-02-14T01:41:47;10.30;94.60
9919;DHT22;4998;51.024;13.828;2023-02-14T01:45:00;10.20;94.50
9919;DHT22;4998;51.024;13.828;2023-02-14T01:47:30;10.20;94.50
9919;DHT22;4998;51.024;13.828;2023-02-14T01:50:02;10.20;94.40
9919;DHT22;4998;51.024;13.828;2023-02-14T01:52:33;10.10;94.50
9919;DHT22;4998;51.024;13.828;2023-02-14T01:55:05;10.20;94.60
9919;DHT22;4998;51.024;13.828;2023-02-14T01:57:37;10.10;94.70
9919;DHT22;4998;51.024;13.828;2023-02-14T02:00:07;10.10;94.70
9919;DHT22;4998;51.024;13.828;2023-02-14T02:02:52;10.10;94.80
9919;DHT22;4998;51.024;13.828;2023-02-14T02:05:20;10.10;94.80
9919;DHT22;4998;51.024;13.828;2023-02-14T02:07:50;10.10;94.90
9919;DHT22;4998;51.024;13.828;2023-02-14T02:10:17;10.10;94.90
9919;DHT22;4998;51.024;13.828;2023-02-14T02:12:47;10.10;94.90
9919;DHT22;4998;51.024;13.828;2023-02-14T02:15:15;10.10;94.90
9919;DHT22;4998;51.024;13.828;2023-02-14T02:17:50;10.10;94.90
9919;DHT22;4998;51.024;13.828;2023-02-14T02:20:53;10.10;94.90
9919;DHT22;4998;51.024;13.828;2023-02-14T02:24:02;10.10;94.90
9919;DHT22;4998;51.024;13.828;2023-02-14T02:30:01;10.20;94.80
9919;DHT22;4998;51.024;13.828;2023-02-14T02:36:22;10.20;94.90
9919;DHT22;4998;51.024;13.828;2023-02-14T02:39:08;10.20;94.90
9919;DHT22;4998;51.024;13.828;2023-02-14T02:41:45;10.20;94.90
9919;DHT22;4998;51.024;13.828;2023-02-14T02:44:17;10.20;94.80
9919;DHT22;4998;51.024;13.828;2023-02-14T02:46:51;10.20;94.80
9919;DHT22;4998;51.024;13.828;2023-02-14T02:49:32;10.20;94.70
9919;DHT22;4998;51.024;13.828;2023-02-14T02:52:25;10.20;94.70
9919;DHT22;4998;51.024;13.828;2023-02-14T02:55:15;10.20;94.70
9919;DHT22;4998;51.024;13.828;2023-02-14T02:57:46;10.20;94.70
9919;DHT22;4998;51.024;13.828;2023-02-14T03:00:15;10.10;94.60
9919;DHT22;4998;51.024;13.828;2023-02-14T03:02:46;10.10;94.70
9919;DHT22;4998;51.024;13.828;2023-02-14T03:05:33;10.10;94.70
9919;DHT22;4998;51.024;13.828;2023-02-14T03:08:03;10.10;94.70
9919;DHT22;4998;51.024;13.828;2023-02-14T03:10:33;10.10;94.80
9919;DHT22;4998;51.024;13.828;2023-02-14T03:13:27;10.10;94.80
9919;DHT22;4998;51.024;13.828;2023-02-14T03:16:20;10.10;95.20
9919;DHT22;4998;51.024;13.828;2023-02-14T03:21:57;10.10;94.80
9919;DHT22;4998;51.024;13.828;2023-02-14T03:24:29;10.10;94.80
9919;DHT22;4998;51.024;13.828;2023-02-14T03:27:03;10.10;94.80
9919;DHT22;4998;51.024;13.828;2023-02-14T03:29:41;10.10;94.70
9919;DHT22;4998;51.024;13.828;2023-02-14T03:32:14;10.10;94.80
9919;DHT22;4998;51.024;13.828;2023-02-14T03:34:50;10.10;94.80
9919;DHT22;4998;51.024;13.828;2023-02-14T03:37:22;10.10;94.80
9919;DHT22;4998;51.024;13.828;2023-02-14T03:40:00;10.00;94.70
9919;DHT22;4998;51.024;13.828;2023-02-14T03:42:32;10.00;94.60
9919;DHT22;4998;51.024;13.828;2023-02-14T03:45:03;10.10;94.70
9919;DHT22;4998;51.024;13.828;2023-02-14T03:47:34;10.10;94.70
9919;DHT22;4998;51.024;13.828;2023-02-14T03:50:13;10.10;94.70
9919;DHT22;4998;51.024;13.828;2023-02-14T03:52:43;10.10;94.80
9919;DHT22;4998;51.024;13.828;2023-02-14T03:55:15;10.10;94.70
9919;DHT22;4998;51.024;13.828;2023-02-14T03:57:48;10.10;94.70
9919;DHT22;4998;51.024;13.828;2023-02-14T04:00:18;10.10;94.70
9919;DHT22;4998;51.024;13.828;2023-02-14T04:02:48;10.10;94.70
9919;DHT22;4998;51.024;13.828;2023-02-14T04:05:19;10.10;94.50
9919;DHT22;4998;51.024;13.828;2023-02-14T04:07:50;10.10;94.60
9919;DHT22;4998;51.024;13.828;2023-02-14T04:10:19;10.10;94.60
9919;DHT22;4998;51.024;13.828;2023-02-14T04:12:47;10.10;94.60
9919;DHT22;4998;51.024;13.828;2023-02-14T04:15:15;10.10;94.50
9919;DHT22;4998;51.024;13.828;2023-02-14T04:17:42;10.10;94.50
9919;DHT22;4998;51.024;13.828;2023-02-14T04:20:27;10.10;94.40
9919;DHT22;4998;51.024;13.828;2023-02-14T04:22:54;10.10;94.40
9919;DHT22;4998;51.024;13.828;2023-02-14T04:25:23;10.10;94.40
9919;DHT22;4998;51.024;13.828;2023-02-14T04:27:50;10.10;94.40
9919;DHT22;4998;51.024;13.828;2023-02-14T04:30:17;10.10;94.40
9919;DHT22;4998;51.024;13.828;2023-02-14T04:32:45;10.10;94.40
9919;DHT22;4998;51.024;13.828;2023-02-14T04:35:12;10.10;94.30
9919;DHT22;4998;51.024;13.828;2023-02-14T04:37:40;10.10;94.40
9919;DHT22;4998;51.024;13.828;2023-02-14T04:40:08;10.10;94.30
9919;DHT22;4998;51.024;13.828;2023-02-14T04:42:36;10.10;94.30
9919;DHT22;4998;51.024;13.828;2023-02-14T04:45:04;10.10;94.30
9919;DHT22;4998;51.024;13.828;2023-02-14T04:47:31;10.10;94.30
9919;DHT22;4998;51.024;13.828;2023-02-14T04:49:58;10.20;94.40
9919;DHT22;4998;51.024;13.828;2023-02-14T04:52:25;10.10;94.30
9919;DHT22;4998;51.024;13.828;2023-02-14T04:54:52;10.10;94.30
9919;DHT22;4998;51.024;13.828;2023-02-14T04:57:19;10.10;94.30
9919;DHT22;4998;51.024;13.828;2023-02-14T04:59:48;10.10;94.30
9919;DHT22;4998;51.024;13.828;2023-02-14T05:02:15;10.10;94.30
9919;DHT22;4998;51.024;13.828;2023-02-14T05:04:42;10.10;94.30
9919;DHT22;4998;51.024;13.828;2023-02-14T05:07:09;10.00;94.20
9919;DHT22;4998;51.024;13.828;2023-02-14T05:09:36;10.00;94.20
9919;DHT22;4998;51.024;13.828;2023-02-14T05:12:03;10.00;94.20
9919;DHT22;4998;51.024;13.828;2023-02-14T05:14:30;10.00;94.20
9919;DHT22;4998;51.024;13.828;2023-02-14T05:16:59;10.00;94.20
9919;DHT22;4998;51.024;13.828;2023-02-14T05:19:26;10.00;94.20
9919;DHT22;4998;51.024;13.828;2023-02-14T05:21:53;10.00;94.20
9919;DHT22;4998;51.024;13.828;2023-02-14T05:24:20;10.00;94.20
9919;DHT22;4998;51.024;13.828;2023-02-14T05:26:47;10.00;94.20
9919;DHT22;4998;51.024;13.828;2023-02-14T05:29:14;10.00;94.20
9919;DHT22;4998;51.024;13.828;2023-02-14T05:31:41;9.90;94.70
9919;DHT22;4998;51.024;13.828;2023-02-14T05:34:10;9.90;94.70
9919;DHT22;4998;51.024;13.828;2023-02-14T05:36:37;9.90;94.70
9919;DHT22;4998;51.024;13.828;2023-02-14T05:39:04;9.90;94.70
9919;DHT22;4998;51.024;13.828;2023-02-14T05:41:31;9.90;94.70
9919;DHT22;4998;51.024;13.828;2023-02-14T05:43:58;9.90;94.70
9919;DHT22;4998;51.024;13.828;2023-02-14T05:46:25;9.90;94.70
9919;DHT22;4998;51.024;13.828;2023-02-14T05:48:52;9.90;94.70
9919;DHT22;4998;51.024;13.828;2023-02-14T05:51:20;9.90;94.70
9919;DHT22;4998;51.024;13.828;2023-02-14T05:53:47;9.90;94.70
9919;DHT22;4998;51.024;13.828;2023-02-14T05:56:14;9.90;94.80
9919;DHT22;4998;51.024;13.828;2023-02-14T05:58:42;9.90;94.80
9919;DHT22;4998;51.024;13.828;2023-02-14T06:01:09;9.90;94.80
9919;DHT22;4998;51.024;13.828;2023-02-14T06:03:36;9.90;94.80
9919;DHT22;4998;51.024;13.828;2023-02-14T06:06:04;9.80;94.80
9919;DHT22;4998;51.024;13.828;2023-02-14T06:08:32;9.90;94.80
9919;DHT22;4998;51.024;13.828;2023-02-14T06:10:59;9.90;94.80
9919;DHT22;4998;51.024;13.828;2023-02-14T06:13:26;9.90;94.80
9919;DHT22;4998;51.024;13.828;2023-02-14T06:15:53;9.90;94.80
9919;DHT22;4998;51.024;13.828;2023-02-14T06:18:20;9.90;94.80
9919;DHT22;4998;51.024;13.828;2023-02-14T06:20:52;9.90;94.90
9919;DHT22;4998;51.024;13.828;2023-02-14T06:23:20;9.90;94.70
9919;DHT22;4998;51.024;13.828;2023-02-14T06:25:48;9.90;95.20
9919;DHT22;4998;51.024;13.828;2023-02-14T06:28:15;9.90;94.80
9919;DHT22;4998;51.024;13.828;2023-02-14T06:30:42;10.00;94.30
9919;DHT22;4998;51.024;13.828;2023-02-14T06:33:09;10.00;94.30
9919;DHT22;4998;51.024;13.828;2023-02-14T06:35:36;10.00;94.30
9919;DHT22;4998;51.024;13.828;2023-02-14T06:38:04;10.00;94.30
9919;DHT22;4998;51.024;13.828;2023-02-14T06:40:31;10.00;94.30
9919;DHT22;4998;51.024;13.828;2023-02-14T06:43:00;10.00;94.30
9919;DHT22;4998;51.024;13.828;2023-02-14T06:45:27;10.00;94.30
9919;DHT22;4998;51.024;13.828;2023-02-14T06:47:54;9.90;94.70
9919;DHT22;4998;51.024;13.828;2023-02-14T06:50:21;9.90;94.70
9919;DHT22;4998;51.024;13.828;2023-02-14T06:52:48;9.90;94.80
9919;DHT22;4998;51.024;13.828;2023-02-14T06:55:16;9.90;94.70
9919;DHT22;4998;51.024;13.828;2023-02-14T06:57:43;9.90;94.70
9919;DHT22;4998;51.024;13.828;2023-02-14T07:00:13;9.90;94.70
9919;DHT22;4998;51.024;13.828;2023-02-14T07:02:40;9.90;94.60
9919;DHT22;4998;51.024;13.828;2023-02-14T07:05:08;9.90;94.60
9919;DHT22;4998;51.024;13.828;2023-02-14T07:07:35;9.90;94.50
9919;DHT22;4998;51.024;13.828;2023-02-14T07:10:03;9.90;94.60
9919;DHT22;4998;51.024;13.828;2023-02-14T07:12:30;9.90;94.60
9919;DHT22;4998;51.024;13.828;2023-02-14T07:14:57;9.90;94.60
9919;DHT22;4998;51.024;13.828;2023-02-14T07:17:25;9.90;94.60
9919;DHT22;4998;51.024;13.828;2023-02-14T07:19:52;9.90;94.60
9919;DHT22;4998;51.024;13.828;2023-02-14T07:22:19;9.90;94.70
9919;DHT22;4998;51.024;13.828;2023-02-14T07:24:46;9.90;94.70
9919;DHT22;4998;51.024;13.828;2023-02-14T07:27:14;10.00;94.20
9919;DHT22;4998;51.024;13.828;2023-02-14T07:29:42;9.90;94.70
9919;DHT22;4998;51.024;13.828;2023-02-14T07:32:09;10.00;94.10
9919;DHT22;4998;51.024;13.828;2023-02-14T07:34:38;10.00;94.00
9919;DHT22;4998;51.024;13.828;2023-02-14T07:37:05;10.10;94.10
9919;DHT22;4998;51.024;13.828;2023-02-14T07:39:32;10.10;94.00
9919;DHT22;4998;51.024;13.828;2023-02-14T07:41:59;10.10;94.00
9919;DHT22;4998;51.024;13.828;2023-02-14T07:44:26;10.10;93.90
9919;DHT22;4998;51.024;13.828;2023-02-14T07:46:53;10.10;93.80
9919;DHT22;4998;51.024;13.828;2023-02-14T07:49:20;10.20;93.70
9919;DHT22;4998;51.024;13.828;2023-02-14T07:51:49;10.20;93.70
9919;DHT22;4998;51.024;13.828;2023-02-14T07:54:16;10.20;93.60
9919;DHT22;4998;51.024;13.828;2023-02-14T07:56:43;10.10;93.40
9919;DHT22;4998;51.024;13.828;2023-02-14T07:59:10;10.20;93.40
9919;DHT22;4998;51.024;13.828;2023-02-14T08:01:37;10.30;93.40
9919;DHT22;4998;51.024;13.828;2023-02-14T08:04:04;10.30;93.20
9919;DHT22;4998;51.024;13.828;2023-02-14T08:06:31;10.30;92.90
9919;DHT22;4998;51.024;13.828;2023-02-14T08:09:00;10.30;92.60
9919;DHT22;4998;51.024;13.828;2023-02-14T08:11:27;10.30;92.40
9919;DHT22;4998;51.024;13.828;2023-02-14T08:14:11;10.30;92.50
9919;DHT22;4998;51.024;13.828;2023-02-14T08:16:38;10.30;92.50
9919;DHT22;4998;51.024;13.828;2023-02-14T08:19:05;10.30;92.30
9919;DHT22;4998;51.024;13.828;2023-02-14T08:21:33;10.30;92.30
9919;DHT22;4998;51.024;13.828;2023-02-14T08:24:01;10.30;92.20
9919;DHT22;4998;51.024;13.828;2023-02-14T08:26:28;10.30;92.00
9919;DHT22;4998;51.024;13.828;2023-02-14T08:28:56;10.30;92.10
9919;DHT22;4998;51.024;13.828;2023-02-14T08:31:25;10.30;91.90
9919;DHT22;4998;51.024;13.828;2023-02-14T08:33:52;10.30;91.70
9919;DHT22;4998;51.024;13.828;2023-02-14T08:36:19;10.30;91.70
9919;DHT22;4998;51.024;13.828;2023-02-14T08:38:47;10.30;91.60
9919;DHT22;4998;51.024;13.828;2023-02-14T08:41:17;10.30;91.60
9919;DHT22;4998;51.024;13.828;2023-02-14T08:43:44;10.30;91.40
9919;DHT22;4998;51.024;13.828;2023-02-14T08:46:11;10.40;91.50
9919;DHT22;4998;51.024;13.828;2023-02-14T08:48:39;10.40;91.40
9919;DHT22;4998;51.024;13.828;2023-02-14T08:51:07;10.40;91.40
9919;DHT22;4998;51.024;13.828;2023-02-14T08:53:34;10.40;91.40
9919;DHT22;4998;51.024;13.828;2023-02-14T08:56:02;10.40;91.40
9919;DHT22;4998;51.024;13.828;2023-02-14T08:58:31;10.40;91.30
9919;DHT22;4998;51.024;13.828;2023-02-14T09:01:00;10.40;91.00
9919;DHT22;4998;51.024;13.828;2023-02-14T09:03:27;10.40;91.20
9919;DHT22;4998;51.024;13.828;2023-02-14T09:05:54;10.40;91.20
9919;DHT22;4998;51.024;13.828;2023-02-14T09:08:21;10.40;91.20
9919;DHT22;4998;51.024;13.828;2023-02-14T09:10:48;10.40;91.10
9919;DHT22;4998;51.024;13.828;2023-02-14T09:13:16;10.50;91.00
9919;DHT22;4998;51.024;13.828;2023-02-14T09:15:45;10.50;91.00
9919;DHT22;4998;51.024;13.828;2023-02-14T09:18:12;10.50;90.90
9919;DHT22;4998;51.024;13.828;2023-02-14T09:20:40;10.50;91.00
9919;DHT22;4998;51.024;13.828;2023-02-14T09:23:09;10.50;91.10
9919;DHT22;4998;51.024;13.828;2023-02-14T09:25:36;10.50;91.10
9919;DHT22;4998;51.024;13.828;2023-02-14T09:28:03;10.60;91.10
9919;DHT22;4998;51.024;13.828;2023-02-14T09:30:30;10.60;91.00
9919;DHT22;4998;51.024;13.828;2023-02-14T09:32:58;10.60;91.00
9919;DHT22;4998;51.024;13.828;2023-02-14T09:35:28;10.70;90.80
9919;DHT22;4998;51.024;13.828;2023-02-14T09:38:13;10.70;90.90
9919;DHT22;4998;51.024;13.828;2023-02-14T09:40:43;10.70;90.90
9919;DHT22;4998;51.024;13.828;2023-02-14T09:43:15;10.70;90.90
9919;DHT22;4998;51.024;13.828;2023-02-14T09:45:46;10.80;90.80
9919;DHT22;4998;51.024;13.828;2023-02-14T09:48:23;10.80;90.60
9919;DHT22;4998;51.024;13.828;2023-02-14T09:50:53;10.80;90.60
9919;DHT22;4998;51.024;13.828;2023-02-14T09:53:25;10.80;90.70
9919;DHT22;4998;51.024;13.828;2023-02-14T09:56:00;10.80;90.60
9919;DHT22;4998;51.024;13.828;2023-02-14T09:58:33;10.80;90.50
9919;DHT22;4998;51.024;13.828;2023-02-14T10:01:08;10.90;90.50
9919;DHT22;4998;51.024;13.828;2023-02-14T10:04:01;10.90;90.50
9919;DHT22;4998;51.024;13.828;2023-02-14T10:06:40;10.90;90.30
9919;DHT22;4998;51.024;13.828;2023-02-14T10:09:18;10.90;90.20
9919;DHT22;4998;51.024;13.828;2023-02-14T10:11:48;10.90;90.20
9919;DHT22;4998;51.024;13.828;2023-02-14T10:14:18;10.90;90.40
9919;DHT22;4998;51.024;13.828;2023-02-14T10:16:48;10.90;90.20
9919;DHT22;4998;51.024;13.828;2023-02-14T10:19:22;10.90;90.30
9919;DHT22;4998;51.024;13.828;2023-02-14T10:21:53;10.90;90.10
9919;DHT22;4998;51.024;13.828;2023-02-14T10:24:24;10.90;90.10
9919;DHT22;4998;51.024;13.828;2023-02-14T10:26:56;10.90;90.10
9919;DHT22;4998;51.024;13.828;2023-02-14T10:29:27;10.90;90.10
9919;DHT22;4998;51.024;13.828;2023-02-14T10:31:57;10.90;90.10
9919;DHT22;4998;51.024;13.828;2023-02-14T10:34:33;10.90;90.00
9919;DHT22;4998;51.024;13.828;2023-02-14T10:37:31;11.00;90.00
9919;DHT22;4998;51.024;13.828;2023-02-14T10:40:20;11.00;90.10
9919;DHT22;4998;51.024;13.828;2023-02-14T10:42:55;11.10;90.10
9919;DHT22;4998;51.024;13.828;2023-02-14T10:45:30;11.10;89.70
9919;DHT22;4998;51.024;13.828;2023-02-14T10:48:07;11.10;89.70
9919;DHT22;4998;51.024;13.828;2023-02-14T10:50:45;11.10;89.40
9919;DHT22;4998;51.024;13.828;2023-02-14T10:53:17;11.10;89.10
9919;DHT22;4998;51.024;13.828;2023-02-14T10:55:50;11.10;89.10
9919;DHT22;4998;51.024;13.828;2023-02-14T10:58:21;11.10;88.70
9919;DHT22;4998;51.024;13.828;2023-02-14T11:00:55;11.10;88.60
9919;DHT22;4998;51.024;13.828;2023-02-14T11:03:25;11.10;88.40
9919;DHT22;4998;51.024;13.828;2023-02-14T11:05:55;11.10;88.80
9919;DHT22;4998;51.024;13.828;2023-02-14T11:08:26;11.10;88.40
9919;DHT22;4998;51.024;13.828;2023-02-14T11:10:56;11.10;88.30
9919;DHT22;4998;51.024;13.828;2023-02-14T11:13:33;11.10;88.00
9919;DHT22;4998;51.024;13.828;2023-02-14T11:16:03;11.10;88.20
9919;DHT22;4998;51.024;13.828;2023-02-14T11:18:32;11.10;88.10
9919;DHT22;4998;51.024;13.828;2023-02-14T11:21:07;11.00;88.00
9919;DHT22;4998;51.024;13.828;2023-02-14T11:23:37;11.00;87.90
9919;DHT22;4998;51.024;13.828;2023-02-14T11:26:08;11.00;88.30
9919;DHT22;4998;51.024;13.828;2023-02-14T11:28:51;11.00;88.30
9919;DHT22;4998;51.024;13.828;2023-02-14T11:31:30;11.00;88.30
9919;DHT22;4998;51.024;13.828;2023-02-14T11:33:58;11.10;88.00
9919;DHT22;4998;51.024;13.828;2023-02-14T11:36:29;11.10;88.20
9919;DHT22;4998;51.024;13.828;2023-02-14T11:39:02;11.10;88.00
9919;DHT22;4998;51.024;13.828;2023-02-14T11:41:46;11.10;88.80
9919;DHT22;4998;51.024;13.828;2023-02-14T11:44:16;11.20;87.70
9919;DHT22;4998;51.024;13.828;2023-02-14T11:46:47;11.20;87.90
9919;DHT22;4998;51.024;13.828;2023-02-14T11:49:27;11.20;87.50
9919;DHT22;4998;51.024;13.828;2023-02-14T11:51:56;11.20;87.10
9919;DHT22;4998;51.024;13.828;2023-02-14T11:54:30;11.40;87.40
9919;DHT22;4998;51.024;13.828;2023-02-14T11:57:03;11.30;87.10
9919;DHT22;4998;51.024;13.828;2023-02-14T11:59:36;11.30;86.90
9919;DHT22;4998;51.024;13.828;2023-02-14T12:02:16;11.30;86.60
9919;DHT22;4998;51.024;13.828;2023-02-14T12:04:45;11.30;86.40
9919;DHT22;4998;51.024;13.828;2023-02-14T12:07:20;11.30;86.70
9919;DHT22;4998;51.024;13.828;2023-02-14T12:10:16;11.40;86.40
9919;DHT22;4998;51.024;13.828;2023-02-14T12:12:55;11.40;86.40
9919;DHT22;4998;51.024;13.828;2023-02-14T12:15:27;11.40;86.40
9919;DHT22;4998;51.024;13.828;2023-02-14T12:18:01;11.40;86.30
9919;DHT22;4998;51.024;13.828;2023-02-14T12:20:38;11.40;86.10
9919;DHT22;4998;51.024;13.828;2023-02-14T12:23:12;11.50;85.70
9919;DHT22;4998;51.024;13.828;2023-02-14T12:25:45;11.50;85.50
9919;DHT22;4998;51.024;13.828;2023-02-14T12:28:17;11.50;85.30
9919;DHT22;4998;51.024;13.828;2023-02-14T12:30:45;11.50;84.90
9919;DHT22;4998;51.024;13.828;2023-02-14T12:33:18;11.50;85.20
9919;DHT22;4998;51.024;13.828;2023-02-14T12:35:52;11.50;84.90
9919;DHT22;4998;51.024;13.828;2023-02-14T12:38:29;11.50;85.40
9919;DHT22;4998;51.024;13.828;2023-02-14T12:41:07;11.50;84.40
9919;DHT22;4998;51.024;13.828;2023-02-14T12:43:46;11.50;84.10
9919;DHT22;4998;51.024;13.828;2023-02-14T12:46:41;11.50;84.00
9919;DHT22;4998;51.024;13.828;2023-02-14T12:49:28;11.40;83.10
9919;DHT22;4998;51.024;13.828;2023-02-14T12:52:11;11.40;83.30
9919;DHT22;4998;51.024;13.828;2023-02-14T12:54:53;11.50;83.40
9919;DHT22;4998;51.024;13.828;2023-02-14T12:57:34;11.30;83.10
9919;DHT22;4998;51.024;13.828;2023-02-14T13:00:18;11.30;82.60
9919;DHT22;4998;51.024;13.828;2023-02-14T13:03:13;11.20;82.60
9919;DHT22;4998;51.024;13.828;2023-02-14T13:05:49;11.20;82.60
9919;DHT22;4998;51.024;13.828;2023-02-14T13:08:32;11.20;82.70
9919;DHT22;4998;51.024;13.828;2023-02-14T13:11:11;11.20;82.80
9919;DHT22;4998;51.024;13.828;2023-02-14T13:13:50;11.20;83.00
9919;DHT22;4998;51.024;13.828;2023-02-14T13:16:25;11.20;83.40
9919;DHT22;4998;51.024;13.828;2023-02-14T13:18:57;11.20;83.00
9919;DHT22;4998;51.024;13.828;2023-02-14T13:21:27;11.20;82.80
9919;DHT22;4998;51.024;13.828;2023-02-14T13:24:00;11.20;82.80
9919;DHT22;4998;51.024;13.828;2023-02-14T13:26:37;11.20;82.80
9919;DHT22;4998;51.024;13.828;2023-02-14T13:29:09;11.20;83.10
9919;DHT22;4998;51.024;13.828;2023-02-14T13:31:37;11.20;83.50
9919;DHT22;4998;51.024;13.828;2023-02-14T13:34:07;11.30;83.80
9919;DHT22;4998;51.024;13.828;2023-02-14T13:36:43;11.30;83.70
9919;DHT22;4998;51.024;13.828;2023-02-14T13:39:19;11.30;83.70
9919;DHT22;4998;51.024;13.828;2023-02-14T13:41:49;11.30;83.30
9919;DHT22;4998;51.024;13.828;2023-02-14T13:44:41;11.40;83.70
9919;DHT22;4998;51.024;13.828;2023-02-14T13:47:16;11.40;83.70
9919;DHT22;4998;51.024;13.828;2023-02-14T13:49:47;11.40;83.80
9919;DHT22;4998;51.024;13.828;2023-02-14T13:52:43;11.50;83.50
9919;DHT22;4998;51.024;13.828;2023-02-14T13:55:16;11.50;83.70
9919;DHT22;4998;51.024;13.828;2023-02-14T13:57:59;11.60;83.50
9919;DHT22;4998;51.024;13.828;2023-02-14T14:00:48;11.60;83.00
9919;DHT22;4998;51.024;13.828;2023-02-14T14:03:54;11.60;82.60
9919;DHT22;4998;51.024;13.828;2023-02-14T14:06:21;11.60;82.80
9919;DHT22;4998;51.024;13.828;2023-02-14T14:08:50;11.60;82.50
9919;DHT22;4998;51.024;13.828;2023-02-14T14:14:35;11.50;82.10
9919;DHT22;4998;51.024;13.828;2023-02-14T14:17:21;11.50;82.20
9919;DHT22;4998;51.024;13.828;2023-02-14T14:19:50;11.40;82.00
9919;DHT22;4998;51.024;13.828;2023-02-14T14:22:18;11.40;82.00
9919;DHT22;4998;51.024;13.828;2023-02-14T14:25:00;11.40;81.70
9919;DHT22;4998;51.024;13.828;2023-02-14T14:27:32;11.40;81.70
9919;DHT22;4998;51.024;13.828;2023-02-14T14:30:04;11.40;82.60
9919;DHT22;4998;51.024;13.828;2023-02-14T14:32:33;11.30;81.70
9919;DHT22;4998;51.024;13.828;2023-02-14T14:35:03;11.30;81.70
9919;DHT22;4998;51.024;13.828;2023-02-14T14:37:32;11.30;82.00
9919;DHT22;4998;51.024;13.828;2023-02-14T14:40:01;11.30;81.80
9919;DHT22;4998;51.024;13.828;2023-02-14T14:42:32;11.20;82.00
9919;DHT22;4998;51.024;13.828;2023-02-14T14:45:04;11.20;83.00
9919;DHT22;4998;51.024;13.828;2023-02-14T14:47:37;11.20;82.10
9919;DHT22;4998;51.024;13.828;2023-02-14T14:50:08;11.20;82.20
9919;DHT22;4998;51.024;13.828;2023-02-14T14:52:42;11.20;82.20
9919;DHT22;4998;51.024;13.828;2023-02-14T14:55:18;11.20;82.30
9919;DHT22;4998;51.024;13.828;2023-02-14T14:57:49;11.20;82.40
9919;DHT22;4998;51.024;13.828;2023-02-14T15:00:23;11.20;82.40
9919;DHT22;4998;51.024;13.828;2023-02-14T15:02:56;11.10;82.10
9919;DHT22;4998;51.024;13.828;2023-02-14T15:05:26;11.20;82.40
9919;DHT22;4998;51.024;13.828;2023-02-14T15:07:54;11.10;82.20
9919;DHT22;4998;51.024;13.828;2023-02-14T15:10:25;11.10;82.30
9919;DHT22;4998;51.024;13.828;2023-02-14T15:12:52;11.10;82.20
9919;DHT22;4998;51.024;13.828;2023-02-14T15:15:41;11.00;82.20
9919;DHT22;4998;51.024;13.828;2023-02-14T15:18:11;11.00;82.40
9919;DHT22;4998;51.024;13.828;2023-02-14T15:20:40;11.00;81.90
9919;DHT22;4998;51.024;13.828;2023-02-14T15:23:16;11.00;82.60
9919;DHT22;4998;51.024;13.828;2023-02-14T15:25:45;10.90;82.40
9919;DHT22;4998;51.024;13.828;2023-02-14T15:28:14;10.90;82.50
9919;DHT22;4998;51.024;13.828;2023-02-14T15:30:43;10.90;82.50
9919;DHT22;4998;51.024;13.828;2023-02-14T15:33:11;10.90;82.70
9919;DHT22;4998;51.024;13.828;2023-02-14T15:35:39;10.90;83.00
9919;DHT22;4998;51.024;13.828;2023-02-14T15:38:09;10.90;82.80
9919;DHT22;4998;51.024;13.828;2023-02-14T15:40:37;10.80;83.00
9919;DHT22;4998;51.024;13.828;2023-02-14T15:43:14;10.80;83.10
9919;DHT22;4998;51.024;13.828;2023-02-14T15:45:43;10.80;83.10
9919;DHT22;4998;51.024;13.828;2023-02-14T15:48:14;10.80;83.10
9919;DHT22;4998;51.024;13.828;2023-02-14T15:50:45;10.80;83.10
9919;DHT22;4998;51.024;13.828;2023-02-14T15:53:34;10.80;83.10
9919;DHT22;4998;51.024;13.828;2023-02-14T15:56:04;10.70;83.10
9919;DHT22;4998;51.024;13.828;2023-02-14T15:58:33;10.70;83.10
9919;DHT22;4998;51.024;13.828;2023-02-14T16:01:03;10.70;83.20
9919;DHT22;4998;51.024;13.828;2023-02-14T16:03:33;10.70;83.10
9919;DHT22;4998;51.024;13.828;2023-02-14T16:06:04;10.70;83.20
9919;DHT22;4998;51.024;13.828;2023-02-14T16:08:35;10.60;83.10
9919;DHT22;4998;51.024;13.828;2023-02-14T16:11:04;10.60;82.90
9919;DHT22;4998;51.024;13.828;2023-02-14T16:13:35;10.60;83.00
9919;DHT22;4998;51.024;13.828;2023-02-14T16:16:04;10.50;83.10
9919;DHT22;4998;51.024;13.828;2023-02-14T16:18:35;10.50;83.00
9919;DHT22;4998;51.024;13.828;2023-02-14T16:21:11;10.50;83.00
9919;DHT22;4998;51.024;13.828;2023-02-14T16:24:09;10.40;82.70
9919;DHT22;4998;51.024;13.828;2023-02-14T16:26:36;10.40;82.80
9919;DHT22;4998;51.024;13.828;2023-02-14T16:29:05;10.40;82.80
9919;DHT22;4998;51.024;13.828;2023-02-14T16:31:34;10.30;82.80
9919;DHT22;4998;51.024;13.828;2023-02-14T16:34:01;10.30;82.90